createdAt,value
2023-05-21T00:00:11.806Z,11.3
2023-05-21T00:03:12.480Z,11.3
2023-05-21T00:06:12.162Z,11.1
2023-05-21T00:09:11.809Z,11
2023-05-21T00:12:11.727Z,10.9
2023-05-21T00:15:12.355Z,10.9
2023-05-21T00:18:13.309Z,10.6
2023-05-21T00:21:11.658Z,10.5
2023-05-21T00:24:11.759Z,10.5
2023-05-21T00:27:11.723Z,10.4
2023-05-21T00:30:12.121Z,10.3
2023-05-21T00:33:13.013Z,10.3
2023-05-21T00:36:12.923Z,10.1
2023-05-21T00:39:11.793Z,10.1
2023-05-21T00:42:11.999Z,10
2023-05-21T00:45:11.938Z,9.9
2023-05-21T00:48:12.250Z,9.9
2023-05-21T00:51:11.854Z,9.8
2023-05-21T00:54:11.677Z,9.8
2023-05-21T00:57:11.635Z,9.6
2023-05-21T01:00:12.204Z,9.6
2023-05-21T01:03:13.545Z,9.5
2023-05-21T01:06:12.145Z,9.5
2023-05-21T01:09:14.043Z,9.4
2023-05-21T01:12:11.885Z,9.4
2023-05-21T01:15:11.940Z,9.3
2023-05-21T01:18:12.352Z,9.3
2023-05-21T01:21:12.067Z,9.1
2023-05-21T01:24:11.838Z,9.1
2023-05-21T01:27:11.897Z,9.1
2023-05-21T01:30:11.932Z,9
2023-05-21T01:33:12.799Z,9
2023-05-21T01:36:11.699Z,8.9
2023-05-21T01:39:12.017Z,8.9
2023-05-21T01:42:11.774Z,8.8
2023-05-21T01:45:11.741Z,8.8
2023-05-21T01:48:11.941Z,8.6
2023-05-21T01:51:11.668Z,8.6
2023-05-21T01:54:11.594Z,8.5
2023-05-21T01:57:11.659Z,8.5
2023-05-21T02:00:11.875Z,8.4
2023-05-21T02:03:12.562Z,8.4
2023-05-21T02:06:11.690Z,8.4
2023-05-21T02:09:11.748Z,8.4
2023-05-21T02:12:11.865Z,8.3
2023-05-21T02:15:11.703Z,8.3
2023-05-21T02:18:12.117Z,8.3
2023-05-21T02:21:11.657Z,8.1
2023-05-21T02:24:11.617Z,8.1
2023-05-21T02:27:11.746Z,8.1
2023-05-21T02:30:11.718Z,8.1
2023-05-21T02:33:12.164Z,8
2023-05-21T02:36:11.657Z,8
2023-05-21T02:39:11.708Z,8
2023-05-21T02:42:11.745Z,8
2023-05-21T02:45:11.814Z,7.9
2023-05-21T02:48:12.129Z,7.9
2023-05-21T02:51:11.676Z,7.9
2023-05-21T02:54:11.800Z,7.9
2023-05-21T02:57:11.654Z,7.9
2023-05-21T03:00:11.796Z,7.9
2023-05-21T03:03:12.458Z,7.7
2023-05-21T03:06:11.715Z,7.7
2023-05-21T03:09:12.564Z,7.7
2023-05-21T03:12:11.678Z,7.7
2023-05-21T03:15:11.670Z,7.9
2023-05-21T03:18:12.177Z,7.9
2023-05-21T03:21:11.805Z,7.9
2023-05-21T03:24:11.806Z,7.9
2023-05-21T03:27:11.691Z,7.9
2023-05-21T03:30:13.984Z,8
2023-05-21T03:33:12.182Z,8.1
2023-05-21T03:36:11.807Z,8.1
2023-05-21T03:39:11.748Z,8.3
2023-05-21T03:42:11.743Z,8.5
2023-05-21T03:45:11.728Z,8.5
2023-05-21T03:48:11.900Z,8.8
2023-05-21T03:51:11.797Z,8.9
2023-05-21T03:54:11.810Z,9.1
2023-05-21T03:57:11.763Z,9.3
2023-05-21T04:00:12.200Z,9.5
2023-05-21T04:03:12.498Z,9.6
2023-05-21T04:06:11.826Z,9.8
2023-05-21T04:09:11.663Z,9.9
2023-05-21T04:12:11.786Z,10.1
2023-05-21T04:15:11.913Z,10.3
2023-05-21T04:18:12.168Z,10.5
2023-05-21T04:21:11.724Z,10.6
2023-05-21T04:24:11.965Z,10.9
2023-05-21T04:27:11.753Z,11.1
2023-05-21T04:30:11.768Z,11.4
2023-05-21T04:33:12.146Z,11.6
2023-05-21T04:36:11.783Z,11.9
2023-05-21T04:39:11.784Z,12.2
2023-05-21T04:42:11.796Z,12.5
2023-05-21T04:45:11.746Z,12.8
2023-05-21T04:48:12.304Z,13.1
2023-05-21T04:51:11.753Z,13.6
2023-05-21T04:54:11.757Z,14
2023-05-21T04:57:11.669Z,14.5
2023-05-21T05:00:12.092Z,14.9
2023-05-21T05:03:12.425Z,15.3
2023-05-21T05:06:11.755Z,15.6
2023-05-21T05:09:11.809Z,15.8
2023-05-21T05:12:11.834Z,15.9
2023-05-21T05:15:11.889Z,16
2023-05-21T05:18:12.195Z,16.3
2023-05-21T05:21:11.744Z,16.5
2023-05-21T05:24:11.932Z,16.8
2023-05-21T05:27:11.771Z,17.1
2023-05-21T05:30:12.193Z,17.6
2023-05-21T05:33:12.254Z,18
2023-05-21T05:36:11.682Z,18.4
2023-05-21T05:39:11.814Z,18.8
2023-05-21T05:42:11.860Z,19.1
2023-05-21T05:45:11.800Z,19.4
2023-05-21T05:48:12.077Z,19.6
2023-05-21T05:51:11.721Z,19.8
2023-05-21T05:54:11.764Z,19.8
2023-05-21T05:57:11.851Z,19.9
2023-05-21T06:00:11.850Z,19.9
2023-05-21T06:03:12.708Z,19.9
2023-05-21T06:06:12.170Z,20
2023-05-21T06:09:11.756Z,20.3
2023-05-21T06:12:16.735Z,20.5
2023-05-21T06:15:11.890Z,20.8
2023-05-21T06:18:12.210Z,21
2023-05-21T06:21:11.795Z,21.2
2023-05-21T06:24:11.737Z,21.4
2023-05-21T06:27:11.799Z,21.6
2023-05-21T06:30:11.767Z,22.1
2023-05-21T06:33:12.549Z,22.5
2023-05-21T06:36:11.777Z,22.9
2023-05-21T06:39:11.911Z,23.6
2023-05-21T06:42:11.729Z,24.4
2023-05-21T06:45:11.826Z,25.4
2023-05-21T06:48:12.032Z,27
2023-05-21T06:51:11.763Z,28
2023-05-21T06:54:11.732Z,30
2023-05-21T06:57:11.985Z,31.9
2023-05-21T07:00:12.093Z,32.4
2023-05-21T07:03:12.804Z,32.5
2023-05-21T07:06:11.842Z,32.5
2023-05-21T07:09:11.753Z,32
2023-05-21T07:12:11.874Z,31.8
2023-05-21T07:15:11.890Z,31.2
2023-05-21T07:18:12.345Z,30.8
2023-05-21T07:21:11.895Z,30
2023-05-21T07:24:11.843Z,29.4
2023-05-21T07:27:32.974Z,29
2023-05-21T07:30:11.871Z,28.6
2023-05-21T07:33:12.045Z,28.3
2023-05-21T07:36:11.813Z,27.9
2023-05-21T07:39:11.800Z,27.5
2023-05-21T07:42:11.697Z,27.2
2023-05-21T07:45:11.844Z,27.1
2023-05-21T07:48:12.151Z,27.2
2023-05-21T07:51:11.806Z,27.4
2023-05-21T07:54:11.834Z,27.5
2023-05-21T07:57:11.894Z,27.9
2023-05-21T08:00:12.350Z,28.3
2023-05-21T08:03:12.440Z,28.6
2023-05-21T08:06:13.319Z,29.3
2023-05-21T08:09:11.791Z,30.5
2023-05-21T08:12:11.921Z,31.4
2023-05-21T08:15:11.753Z,31.9
2023-05-21T08:18:12.585Z,32.4
2023-05-21T08:21:11.747Z,33
2023-05-21T08:24:11.924Z,33.5
2023-05-21T08:27:11.955Z,33.4
2023-05-21T08:30:11.887Z,33.1
2023-05-21T08:33:12.159Z,33.6
2023-05-21T08:36:11.784Z,34.4
2023-05-21T08:39:11.710Z,35
2023-05-21T08:42:12.170Z,35
2023-05-21T08:45:11.816Z,34.9
2023-05-21T08:48:12.102Z,34.6
2023-05-21T08:51:11.834Z,34.9
2023-05-21T08:54:11.835Z,35.4
2023-05-21T08:57:11.898Z,35.6
2023-05-21T09:00:11.834Z,35.7
2023-05-21T09:03:12.553Z,36.1
2023-05-21T09:06:11.807Z,36.6
2023-05-21T09:09:11.767Z,38
2023-05-21T09:12:12.004Z,39.2
2023-05-21T09:15:11.890Z,39.6
2023-05-21T09:18:12.038Z,39.1
2023-05-21T09:21:11.754Z,39.6
2023-05-21T09:24:11.867Z,41
2023-05-21T09:27:11.719Z,43.1
2023-05-21T09:30:11.852Z,44.7
2023-05-21T09:33:12.480Z,46.6
2023-05-21T09:36:11.723Z,46.5
2023-05-21T09:39:11.766Z,45.4
2023-05-21T09:42:11.767Z,44
2023-05-21T09:45:11.786Z,43
2023-05-21T09:48:11.998Z,44.1
2023-05-21T09:51:11.773Z,45.5
2023-05-21T09:54:11.782Z,47
2023-05-21T09:57:11.892Z,46.9
2023-05-21T10:00:11.864Z,45.6
2023-05-21T10:03:12.269Z,43.7
2023-05-21T10:06:11.730Z,44.4
2023-05-21T10:09:16.519Z,45.9
2023-05-21T10:12:11.783Z,45.8
2023-05-21T10:15:11.719Z,45
2023-05-21T10:18:12.376Z,44.6
2023-05-21T10:21:11.701Z,46
2023-05-21T10:24:11.813Z,47
2023-05-21T10:27:11.706Z,48.4
2023-05-21T10:30:11.745Z,50.5
2023-05-21T10:33:12.484Z,51.7
2023-05-21T10:36:11.813Z,53.3
2023-05-21T10:39:11.715Z,54.5
2023-05-21T10:42:11.764Z,55
2023-05-21T10:45:12.167Z,54.9
2023-05-21T10:48:12.048Z,55.2
2023-05-21T10:51:11.714Z,54.2
2023-05-21T10:54:11.732Z,53.4
2023-05-21T10:57:11.858Z,52.7
2023-05-21T11:00:11.942Z,52.7
2023-05-21T11:03:12.512Z,52.2
2023-05-21T11:06:11.747Z,51.7
2023-05-21T11:09:11.775Z,52
2023-05-21T11:12:11.969Z,52
2023-05-21T11:15:11.822Z,51.7
2023-05-21T11:18:12.309Z,50.5
2023-05-21T11:21:11.817Z,49.2
2023-05-21T11:24:11.779Z,49.4
2023-05-21T11:27:11.723Z,48.9
2023-05-21T11:30:11.867Z,48
2023-05-21T11:33:12.497Z,47.1
2023-05-21T11:36:11.912Z,46.6
2023-05-21T11:39:11.776Z,47.1
2023-05-21T11:42:15.673Z,47.7
2023-05-21T11:45:11.853Z,47.6
2023-05-21T11:48:12.250Z,48.5
2023-05-21T11:51:11.716Z,49.4
2023-05-21T11:54:11.795Z,50.2
2023-05-21T11:57:11.721Z,50.5
2023-05-21T12:00:11.861Z,51
2023-05-21T12:03:12.775Z,51.4
2023-05-21T12:06:12.240Z,51
2023-05-21T12:09:11.752Z,51.2
2023-05-21T12:12:11.729Z,51.5
2023-05-21T12:15:11.752Z,51.7
2023-05-21T12:18:12.185Z,50.2
2023-05-21T12:21:14.675Z,49.6
2023-05-21T12:24:11.854Z,49.6
2023-05-21T12:27:11.872Z,49.1
2023-05-21T12:30:11.887Z,49.6
2023-05-21T12:33:12.174Z,49.5
2023-05-21T12:36:11.751Z,49.7
2023-05-21T12:39:13.694Z,50.2
2023-05-21T12:42:11.767Z,50.5
2023-05-21T12:45:11.716Z,50.4
2023-05-21T12:48:12.277Z,51
2023-05-21T12:51:11.669Z,49.1
2023-05-21T12:54:11.751Z,48.1
2023-05-21T12:57:11.720Z,48.4
2023-05-21T13:00:12.262Z,49.4
2023-05-21T13:03:12.370Z,49.5
2023-05-21T13:06:11.770Z,49.5
2023-05-21T13:09:12.023Z,49.5
2023-05-21T13:12:11.737Z,49.5
2023-05-21T13:15:11.777Z,49.4
2023-05-21T13:18:12.467Z,49.4
2023-05-21T13:21:11.829Z,49.4
2023-05-21T13:24:11.882Z,49.9
2023-05-21T13:27:11.852Z,48.6
2023-05-21T13:30:12.050Z,48.3
2023-05-21T13:33:12.996Z,48.9
2023-05-21T13:36:11.770Z,48.9
2023-05-21T13:39:11.852Z,49.4
2023-05-21T13:42:11.700Z,48.5
2023-05-21T13:45:11.680Z,46.2
2023-05-21T13:48:12.105Z,47.7
2023-05-21T13:51:14.191Z,49.6
2023-05-21T13:54:11.785Z,50.2
2023-05-21T13:57:11.696Z,49.7
2023-05-21T14:00:11.938Z,48.9
2023-05-21T14:03:12.608Z,49.1
2023-05-21T14:06:11.785Z,51
2023-05-21T14:09:11.776Z,52
2023-05-21T14:12:14.302Z,52.2
2023-05-21T14:15:12.169Z,48
2023-05-21T14:18:12.257Z,44.9
2023-05-21T14:21:11.879Z,42.7
2023-05-21T14:24:11.700Z,42.6
2023-05-21T14:27:13.224Z,43
2023-05-21T14:30:11.838Z,44.5
2023-05-21T14:33:12.077Z,44.7
2023-05-21T14:36:11.795Z,43.7
2023-05-21T14:39:11.774Z,41.1
2023-05-21T14:42:11.802Z,41
2023-05-21T14:45:30.119Z,42.5
2023-05-21T14:48:12.141Z,40.9
2023-05-21T14:51:11.810Z,39.6
2023-05-21T14:54:11.834Z,40
2023-05-21T14:57:11.722Z,42.5
2023-05-21T15:00:11.824Z,43.6
2023-05-21T15:03:12.650Z,44.4
2023-05-21T15:06:12.056Z,45
2023-05-21T15:09:11.718Z,45
2023-05-21T15:12:11.688Z,44.2
2023-05-21T15:15:11.749Z,44
2023-05-21T15:18:12.103Z,44
2023-05-21T15:21:11.803Z,44.5
2023-05-21T15:24:11.669Z,43.7
2023-05-21T15:27:11.814Z,43
2023-05-21T15:30:11.923Z,42.5
2023-05-21T15:33:11.811Z,41.2
2023-05-21T15:36:11.935Z,40.2
2023-05-21T15:39:11.750Z,39.6
2023-05-21T15:42:11.795Z,39.6
2023-05-21T15:45:11.733Z,39.2
2023-05-21T15:48:12.151Z,38.7
2023-05-21T15:51:11.846Z,38.7
2023-05-21T15:54:11.765Z,39.5
2023-05-21T15:57:11.783Z,40.2
2023-05-21T16:00:11.986Z,41.5
2023-05-21T16:03:12.516Z,42.9
2023-05-21T16:06:11.804Z,43.5
2023-05-21T16:09:11.840Z,43.7
2023-05-21T16:12:11.782Z,42.2
2023-05-21T16:15:11.841Z,40.6
2023-05-21T16:18:12.365Z,39.5
2023-05-21T16:21:11.782Z,39.2
2023-05-21T16:24:11.839Z,37.6
2023-05-21T16:27:11.706Z,36.1
2023-05-21T16:30:12.103Z,35.4
2023-05-21T16:33:12.252Z,35.1
2023-05-21T16:36:11.785Z,35.7
2023-05-21T16:39:11.746Z,36.7
2023-05-21T16:42:11.769Z,37.6
2023-05-21T16:45:11.774Z,37.9
2023-05-21T16:48:12.113Z,37.5
2023-05-21T16:51:11.688Z,37
2023-05-21T16:54:11.741Z,36.6
2023-05-21T16:57:12.343Z,36.7
2023-05-21T17:00:11.917Z,36.9
2023-05-21T17:03:12.523Z,36.4
2023-05-21T17:06:11.814Z,35.2
2023-05-21T17:09:13.810Z,34.5
2023-05-21T17:12:11.989Z,34.1
2023-05-21T17:15:11.820Z,34.5
2023-05-21T17:18:12.234Z,34.1
2023-05-21T17:21:11.816Z,32.7
2023-05-21T17:24:11.709Z,31.9
2023-05-21T17:27:11.783Z,31.1
2023-05-21T17:30:11.788Z,30.8
2023-05-21T17:33:12.347Z,30.3
2023-05-21T17:36:11.736Z,29.8
2023-05-21T17:39:11.719Z,29.4
2023-05-21T17:42:11.806Z,28.9
2023-05-21T17:45:11.775Z,28.5
2023-05-21T17:48:12.676Z,28.1
2023-05-21T17:51:11.730Z,27.8
2023-05-21T17:54:11.765Z,27.4
2023-05-21T17:57:11.717Z,27.1
2023-05-21T18:00:11.923Z,26.9
2023-05-21T18:03:12.274Z,26.6
2023-05-21T18:06:14.169Z,26.4
2023-05-21T18:09:11.730Z,26.2
2023-05-21T18:12:11.777Z,26
2023-05-21T18:15:11.749Z,25.9
2023-05-21T18:18:12.224Z,25.6
2023-05-21T18:21:11.745Z,25.4
2023-05-21T18:24:11.797Z,25.3
2023-05-21T18:27:11.828Z,25
2023-05-21T18:30:11.773Z,24.9
2023-05-21T18:33:12.034Z,24.6
2023-05-21T18:36:11.756Z,24.5
2023-05-21T18:39:11.742Z,24.3
2023-05-21T18:42:24.996Z,24
2023-05-21T18:45:11.786Z,23.9
2023-05-21T18:48:12.243Z,23.6
2023-05-21T18:51:11.699Z,23.4
2023-05-21T18:54:11.752Z,23.3
2023-05-21T18:57:11.806Z,23
2023-05-21T19:00:12.217Z,22.9
2023-05-21T19:03:12.191Z,22.8
2023-05-21T19:06:11.718Z,22.5
2023-05-21T19:09:11.787Z,22.4
2023-05-21T19:12:11.835Z,22.1
2023-05-21T19:15:11.745Z,22
2023-05-21T19:18:11.972Z,21.9
2023-05-21T19:21:11.734Z,21.8
2023-05-21T19:24:14.705Z,21.6
2023-05-21T19:27:11.690Z,21.5
2023-05-21T19:30:11.692Z,21.4
2023-05-21T19:33:12.201Z,21.2
2023-05-21T19:36:11.715Z,21.2
2023-05-21T19:39:11.690Z,21.2
2023-05-21T19:42:11.721Z,21.2
2023-05-21T19:45:11.920Z,21.2
2023-05-21T19:48:12.122Z,21.2
2023-05-21T19:51:11.759Z,21.4
2023-05-21T19:54:11.636Z,21.4
2023-05-21T19:57:14.668Z,21.4
2023-05-21T20:00:11.820Z,21.2
2023-05-21T20:03:14.819Z,21.1
2023-05-21T20:06:11.689Z,21.1
2023-05-21T20:09:11.712Z,21
2023-05-21T20:12:11.693Z,20.9
2023-05-21T20:15:12.088Z,20.8
2023-05-21T20:18:12.176Z,20.6
2023-05-21T20:21:12.523Z,20.6
2023-05-21T20:24:11.687Z,20.5
2023-05-21T20:27:11.772Z,20.4
2023-05-21T20:30:11.808Z,20.4
2023-05-21T20:33:12.060Z,20.3
2023-05-21T20:36:11.889Z,20.1
2023-05-21T20:39:11.787Z,19.9
2023-05-21T20:42:11.693Z,19.6
2023-05-21T20:45:11.995Z,19.3
2023-05-21T20:48:12.402Z,19
2023-05-21T20:51:11.699Z,18.9
2023-05-21T20:54:11.756Z,18.6
2023-05-21T20:57:11.734Z,18.4
2023-05-21T21:00:11.852Z,18.1
2023-05-21T21:03:12.722Z,18
2023-05-21T21:06:11.969Z,17.9
2023-05-21T21:09:11.705Z,17.6
2023-05-21T21:12:33.620Z,17.4
2023-05-21T21:15:11.778Z,17.1
2023-05-21T21:18:12.328Z,16.9
2023-05-21T21:21:11.712Z,16.6
2023-05-21T21:24:11.697Z,16.5
2023-05-21T21:27:11.756Z,16.4
2023-05-21T21:30:11.638Z,16.3
2023-05-21T21:33:12.588Z,16.1
2023-05-21T21:36:11.718Z,16
2023-05-21T21:39:11.676Z,15.8
2023-05-21T21:42:11.685Z,15.8
2023-05-21T21:45:12.013Z,15.6
2023-05-21T21:48:12.148Z,15.5
2023-05-21T21:51:11.647Z,15.4
2023-05-21T21:54:11.883Z,15.4
2023-05-21T21:57:11.742Z,15.4
2023-05-21T22:00:12.899Z,15.3
2023-05-21T22:03:14.385Z,15.3
2023-05-21T22:06:11.743Z,15.1
2023-05-21T22:09:12.024Z,15.1
2023-05-21T22:12:11.680Z,15.1
2023-05-21T22:15:11.968Z,15
2023-05-21T22:18:12.257Z,15
2023-05-21T22:21:12.295Z,15
2023-05-21T22:24:33.413Z,15
2023-05-21T22:27:11.705Z,15
2023-05-21T22:30:11.758Z,15
2023-05-21T22:33:11.958Z,15
2023-05-21T22:36:11.859Z,15
2023-05-21T22:39:11.663Z,15
2023-05-21T22:42:11.694Z,14.9
2023-05-21T22:45:11.712Z,14.9
2023-05-21T22:48:12.216Z,14.9
2023-05-21T22:51:11.726Z,14.9
2023-05-21T22:54:11.703Z,14.9
2023-05-21T22:57:11.734Z,14.9
2023-05-21T23:00:11.827Z,14.7
2023-05-21T23:03:12.218Z,14.7
2023-05-21T23:06:11.750Z,14.6
2023-05-21T23:09:11.721Z,14.6
2023-05-21T23:12:11.673Z,14.6
2023-05-21T23:15:12.298Z,14.5
2023-05-21T23:18:12.428Z,14.4
2023-05-21T23:21:12.125Z,14.4
2023-05-21T23:24:11.716Z,14.3
2023-05-21T23:27:11.684Z,14.3
2023-05-21T23:30:11.709Z,14.3
2023-05-21T23:33:12.260Z,14.1
2023-05-21T23:36:11.715Z,14.3
2023-05-21T23:39:11.765Z,14.3
2023-05-21T23:42:11.703Z,14.1
2023-05-21T23:45:11.690Z,14.1
2023-05-21T23:48:12.210Z,14.1
2023-05-21T23:51:11.719Z,14.1
2023-05-21T23:54:11.705Z,14.1
2023-05-21T23:57:11.784Z,14
